MTNMARTIN STATE
METARs for airports near MTN, sorted by distance:
N 0 nm 21' KMTN 142255Z 15005KT 10SM CLR 30/23 A2996
NE 14 nm 44' KAPG 122034Z VRB05KT 7SM -RA SCT030 OVC050 26/22 A3014
SW 14 nm 143' KBWI 142254Z 16007KT 10SM FEW065 FEW250 32/22 A2994
SW 21 nm 150' KFME 142309Z 14004KT 10SM CLR 30/22 A2998
SW 31 nm 48' KCGS 142305Z 15007KT 10SM CLR 33/22 A2995
NW 32 nm 789' KDMW 142305Z 21003KT 10SM CLR 36/17 A2997
SE 35 nm 72' KESN 142245Z 17006KT 10SM CLR 31/23 A2997
W 36 nm 538' KGAI 142256Z 20006KT 10SM CLR A2997
SW 37 nm 279' KADW 142255Z 13007KT 10SM CLR 32/23 A2993
SW 40 nm 14' KDCA 142252Z 21009KT 10SM FEW080 FEW250 36/16 A2993
NW 41 nm 494' KTHV 142253Z VRB04KT 10SM CLR 33/21 A2995
NE 42 nm 79' KILG 142251Z 10006KT 10SM CLR 29/23 A2996
W 44 nm 308' KFDK 142247Z 18005KT 10SM CLR 36/17 A2994
E 45 nm 28' KDOV 142255Z 19009KT 10SM CLR 31/21 A2994
NE 46 nm 660' KMQS 142255Z 00000KT 10SM CLR 28/28 A3000
N 48 nm 402' KLNS 142253Z 17007KT 10SM CLR 31/22 A2996
S 50 nm 19' KCGE 142305Z 16008KT 10SM CLR 31/23 A2997
SW 51 nm 73' KDAA 142255Z 15005KT 10SM CLR 35/19 A2992
SW 53 nm 312' KIAD 142252Z 20008KT 10SM FEW090 FEW250 34/18 A2994
N 54 nm 310' KMDT 142256Z 14009KT 10SM SCT095 32/22 A2993
W 55 nm 389' KJYO 142315Z 21009KT 10SM CLR 35/21 A2996
NE 55 nm 464' KOQN 142255Z 00000KT 10SM CLR 27/23 A2999
N 57 nm 346' KCXY 142256Z 12011KT 10SM SCT095 33/21 A2994
E 62 nm 84' KMIV 142254Z VRB06KT 10SM CLR 28/21 A2997
SE 62 nm 53' KGED 142254Z 18008KT 10SM CLR 29/22 A2998
S 62 nm 38' KNHK 142252Z 14007KT 10SM CLR 32/25 A2996
SW 62 nm 192' KHEF 142256Z 17007KT 10SM CLR 33/22 A2995
NE 63 nm 35' KPHL 142254Z 00000KT 10SM FEW030 SCT250 29/23 A2996
SW 64 nm 10' KNYG 142256Z 5SM CLR 34/21 A2995
W 65 nm 703' KHGR 142253Z 16005KT 10SM CLR 35/18 A2995
N 66 nm 343' KRDG 142254Z 15004KT 10SM CLR 31/22 A2995
N 67 nm 487' KMUI 142255Z 10004KT 10SM CLR 31/21 A2995
NE 67 nm 308' KPTW 122254Z 00000KT 9SM -RA FEW035 BKN090 OVC120 26/22 A3018
NE 72 nm 301' KLOM 142255Z 16003KT 10SM CLR 28/23 A2998
E 72 nm 21' KWWD 142256Z 19011G18KT 10SM CLR 27/22 A2998
SE 72 nm 52' KSBY 142254Z 15007KT 10SM CLR 28/23 A2999
W 73 nm 564' KMRB 142253Z 28008KT 10SM SCT110 35/13 A2993
SW 73 nm 219' KRMN 142255Z 20003KT 10SM CLR 34/17 A2996
SW 75 nm 336' KHWY 142255Z 16003KT 10SM CLR 34/18 A2996
NE 79 nm 119' KPNE 142254Z 29005KT 10SM CLR 29/21 A2997
SW 79 nm 85' KEZF 142255Z 00000KT 10SM CLR 34/20 A2994
W 81 nm 726' KOKV 142255Z 18005KT 10SM OVC100 32/18 A2996
NE 81 nm 52' KVAY 142254Z VRB04KT 10SM CLR 27/23 A2996
NE 81 nm 525' KUKT 142255Z 14004KT 10SM CLR 28/22 A2998
NE 82 nm 567' KCKZ 142255Z 00000KT 10SM CLR 27/22 A2998
SW 82 nm 315' KCJR 142255Z 18003KT CLR 35/17 A2996
N 82 nm 1729' KZER 142255Z 14006KT 10SM CLR 27/21 A3005
NE 84 nm 393' KDYL 142254Z 24003KT 10SM CLR 29/21 A2997
E 85 nm 74' KACY 142254Z 28/21 A2996
SE 85 nm 15' KOXB 142053Z 21005KT 10SM CLR 28/24 A3001
TAFs for airports near MTN, sorted by distance:
N 0 nm 21' KMTN KMTN 142001Z 1420/1518 15012G20KT P6SM FEW250
  FM150000 20005KT P6SM FEW250
  FM150400 17005KT P6SM FEW250
  FM151600 21005KT P6SM FEW200
SW 14 nm 143' KBWI TAF
  AMD KBWI 142102Z 1421/1524 18009G15KT P6SM VCTS SCT060CB SCT250
  FM142300 20004KT P6SM FEW200
  FM150500 17004KT P6SM FEW250
  FM151600 25005KT P6SM FEW200
SW 37 nm 279' KADW TAF
  AMD KADW 141910Z 1419/1523 27012KT 9999 VCTS SCT050CB QNH2997INS
  TEMPO 1419/1421 29012G18KT 8000 -TSRA BKN050CB
  BECMG 1420/1421 22006KT 9999 NSW SCT050 QNH2994INS
  BECMG 1500/1501 17006KT 9999 FEW070 QNH2992INS
  BECMG 1506/1507 26006KT 9999 SCT060 SCT250 QNH2986INS
  BECMG 1518/1519 23012KT 9999 -SHRA VCTS BKN040CB QNH2983INS TX38/1419Z TN23/1509Z
SW 40 nm 14' KDCA KDCA 142102Z 1421/1524 21008G16KT P6SM VCTS SCT060CB SCT250
  FM142200 08008G16KT P6SM FEW200
  FM150500 17005KT P6SM FEW200
  FM151600 26005KT P6SM FEW200
NE 42 nm 79' KILG TAF KILG 141720Z 1418/1518 16008KT P6SM SCT040
  TEMPO 1418/1421 VRB20G30KT 3SM TSRA BKN040CB
  FM150100 18005KT P6SM FEW100
  FM151500 24006KT P6SM FEW060
E 45 nm 28' KDOV TAF KDOV 141600Z 1416/1522 18006KT 9999 SCT095 QNH3005INS
  BECMG 1417/1418 22006KT 9999 BKN100 QNH2997INS
  TEMPO 1418/1422 9000 -SHRA
  BECMG 1502/1503 23009KT 9999 SCT080 QNH2993INS TX33/1420Z TN24/1510Z
N 48 nm 402' KLNS KLNS 142127Z 1421/1518 16006KT P6SM SCT070
  FM150200 15003KT 6SM BR SCT120
  FM150800 VRB03KT 4SM BR BKN250
  FM151300 28007KT P6SM SCT250
SW 51 nm 73' KDAA TAF KDAA 121200Z 1212/1318 VRB05KT 9999 VCSH SCT030 BKN060 OVC100 QNH2996INS
  BECMG 1212/1213 03006KT 9000 -SHRA FEW015 BKN030 OVC070 QNH3000INS
  BECMG 1213/1214 04007KT 8000 -SHRA VCTS SCT015CB OVC030 QNH3011INS
  TEMPO 1214/1301 VRB12G20KT 4800 TSRA BR SCT008 OVC015CB
  BECMG 1302/1303 VRB06KT 9000 -RA OVC010 QNH3010INS
  BECMG 1306/1307 VRB05KT 4800 -RA BR OVC008 QNH3011INS
  BECMG 1312/1313 16007KT 8000 -SHRA VCTS SCT009 BKN015CB OVC030 QNH3012INS TX27/1220Z TN24/1310Z
SW 53 nm 312' KIAD KIAD 142102Z 1421/1524 23009KT P6SM FEW250
  FM142300 21005KT P6SM FEW250
  FM150300 18004KT P6SM FEW250
  FM151600 26005KT P6SM FEW250
N 54 nm 310' KMDT KMDT 142127Z 1421/1518 27005KT P6SM SCT040
  FM150000 15003KT 6SM BR SCT120
  FM150800 VRB03KT 4SM BR BKN250
  FM151300 28007KT P6SM SCT250
E 62 nm 84' KMIV TAF KMIV 141720Z 1418/1518 20008KT P6SM SCT040
  FM142300 VRB02KT P6SM SCT100
  FM151500 24006KT P6SM FEW050
S 62 nm 38' KNHK TAF KNHK 1423/1523 17010KT 9999 VCTS FEW030CB SCT060 BKN100 QNH2993INS
  BECMG 1504/1506 20008KT 9999 NSW FEW050 SCT070 BKN090 QNH2989INS
  BECMG 1510/1512 19007KT 9999 FEW120 QNH2987INS AUTOMATED SENSOR METWATCH 1423 TIL 1508 TX34/1521Z TN27/1509Z FN00277
NE 63 nm 35' KPHL TAF
  AMD KPHL 142052Z 1421/1524 VRB20G30KT 6SM -TSRA BKN050CB
  FM142115 19010KT P6SM SCT060
  FM150200 20007KT P6SM FEW100
  FM151400 26008KT P6SM FEW070
SW 64 nm 10' KNYG TAF KNYG 1321/1421 VRB06KT 9999 SKC QNH3005INS
  FM140600 VRB06KT 9999 SCT200 QNH2995INS LAST NO
  AMDS AFT 1321 NEXT 1509 AUTOMATED SENSOR METWATCH 1321 TIL 1511 T32/1321Z T22/1411Z
N 66 nm 343' KRDG TAF KRDG 141720Z 1418/1518 24005KT P6SM SCT040
  TEMPO 1418/1419 3SM TSRA BKN030CB
  FM142300 VRB03KT P6SM FEW100
  FM151500 26007KT P6SM FEW070
N 67 nm 487' KMUI TAF KMUI 121900Z 1219/1401 VRB06KT 8000 -SHRA SCT050 BKN070 QNH3014INS
  BECMG 1301/1302 VRB06KT 8000 -SHRA BKN025 QNH3017INS
  BECMG 1303/1304 VRB06KT 4800 -SHRA BKN010 OVC050 QNH3014INS
  TEMPO 1304/1306 22015G25KT 3200 -TSRA BKN006CB OVC050
  BECMG 1306/1307 VRB06KT 8000 BR OVC006 QNH3016INS
  BECMG 1313/1314 VRB06KT 8000 BR OVC050 QNH3009INS TX26/1219Z TN20/1311Z
SE 72 nm 52' KSBY KSBY 141722Z 1418/1518 17008KT P6SM SCT060
  FM142300 17003KT P6SM SKC
  FM151400 24007KT P6SM SKC
W 73 nm 564' KMRB KMRB 141727Z 1418/1518 25006KT P6SM FEW250
  FM142300 21005KT P6SM FEW250
  FM150300 17004KT P6SM FEW250
  FM151000 23005KT P6SM FEW200
  FM151400 28004KT P6SM FEW200
NE 79 nm 119' KPNE KPNE 142059Z 1421/1518 VRB12G20KT P6SM VCTS BKN050CB
  FM142115 14008KT P6SM SCT060
  FM150100 VRB03KT P6SM FEW100
  FM151500 24005KT P6SM SCT060
E 85 nm 74' KACY TAF KACY 141720Z 1418/1518 16010KT P6SM SCT050
  FM150100 19006KT P6SM FEW010 SCT100
  FM150900 VRB03KT 5SM BR FEW100
  FM151500 22006KT P6SM FEW050

Shortcut to this page: http://wxbay.com.

Data may contain errors.